createdAt,value
2018-06-04T00:01:49.883Z,22.20
2018-06-04T00:05:23.173Z,22.20
2018-06-04T00:08:56.405Z,22.10
2018-06-04T00:12:29.632Z,22.10
2018-06-04T00:16:02.892Z,22.10
2018-06-04T00:19:36.102Z,22.00
2018-06-04T00:23:09.303Z,22.00
2018-06-04T00:26:42.527Z,22.00
2018-06-04T00:30:15.787Z,21.90
2018-06-04T00:33:49.023Z,21.90
2018-06-04T00:37:22.255Z,21.90
2018-06-04T00:40:55.492Z,21.90
2018-06-04T00:44:28.722Z,21.80
2018-06-04T00:48:01.935Z,21.80
2018-06-04T00:51:35.159Z,21.70
2018-06-04T00:55:08.391Z,21.70
2018-06-04T00:58:41.610Z,21.60
2018-06-04T01:02:14.850Z,21.50
2018-06-04T01:05:48.074Z,21.50
2018-06-04T01:09:21.348Z,21.40
2018-06-04T01:12:54.580Z,21.40
2018-06-04T01:16:27.796Z,21.40
2018-06-04T01:20:01.012Z,21.40
2018-06-04T01:23:34.212Z,21.30
2018-06-04T01:27:07.428Z,21.30
2018-06-04T01:30:40.640Z,21.30
2018-06-04T01:41:19.845Z,21.20
2018-06-04T01:44:53.064Z,21.20
2018-06-04T01:48:26.297Z,21.20
2018-06-04T01:51:59.533Z,21.10
2018-06-04T01:55:32.759Z,21.10
2018-06-04T01:59:06.036Z,21.10
2018-06-04T02:02:39.236Z,21.10
2018-06-04T02:06:12.479Z,21.10
2018-06-04T02:09:45.718Z,21.00
2018-06-04T02:13:19.070Z,21.00
2018-06-04T02:16:52.281Z,20.90
2018-06-04T02:20:25.499Z,20.90
2018-06-04T02:23:58.745Z,20.80
2018-06-04T02:27:31.957Z,20.80
2018-06-04T02:31:05.190Z,20.70
2018-06-04T02:34:38.403Z,20.70
2018-06-04T02:38:11.654Z,20.70
2018-06-04T02:41:44.903Z,20.70
2018-06-04T02:48:51.084Z,20.60
2018-06-04T02:52:24.311Z,20.60
2018-06-04T02:55:57.544Z,20.50
2018-06-04T02:59:30.756Z,20.50
2018-06-04T03:03:03.994Z,20.40
2018-06-04T03:10:10.309Z,20.30
2018-06-04T03:13:43.552Z,20.20
2018-06-04T03:17:16.773Z,20.20
2018-06-04T03:20:50.003Z,20.20
2018-06-04T03:24:23.248Z,20.10
2018-06-04T03:27:56.503Z,20.10
2018-06-04T03:31:29.719Z,20.10
2018-06-04T03:35:15.984Z,20.10
2018-06-04T03:38:49.245Z,20.10
2018-06-04T03:42:22.777Z,20.00
2018-06-04T03:45:56.002Z,20.00
2018-06-04T03:49:29.260Z,20.00
2018-06-04T03:53:02.516Z,20.00
2018-06-04T03:56:35.754Z,20.00
2018-06-04T04:00:09.087Z,20.10
2018-06-04T04:03:42.316Z,20.10
2018-06-04T04:07:15.552Z,20.10
2018-06-04T04:10:48.780Z,20.10
2018-06-04T04:14:22.032Z,20.20
2018-06-04T04:17:55.508Z,20.20
2018-06-04T04:21:28.739Z,20.30
2018-06-04T04:25:01.965Z,20.30
2018-06-04T04:28:35.205Z,20.30
2018-06-04T04:35:41.419Z,20.40
2018-06-04T04:39:14.653Z,20.40
2018-06-04T04:46:20.929Z,20.50
2018-06-04T04:49:54.148Z,20.50
2018-06-04T05:00:03.485Z,20.60
2018-06-04T05:03:36.700Z,20.60
2018-06-04T05:07:10.033Z,20.50
2018-06-04T05:10:43.314Z,20.60
2018-06-04T05:14:16.533Z,20.70
2018-06-04T05:17:49.782Z,20.90
2018-06-04T05:21:23.046Z,21.00
2018-06-04T05:24:56.289Z,21.20
2018-06-04T05:28:29.515Z,21.30
2018-06-04T05:32:02.740Z,21.50
2018-06-04T05:35:36.040Z,21.60
2018-06-04T05:39:10.196Z,21.80
2018-06-04T05:46:16.400Z,22.00
2018-06-04T05:49:49.662Z,22.00
2018-06-04T05:53:22.916Z,22.10
2018-06-04T05:56:56.167Z,22.10
2018-06-04T06:00:29.408Z,22.10
2018-06-04T06:04:02.620Z,22.30
2018-06-04T06:07:35.900Z,22.40
2018-06-04T06:14:42.116Z,22.60
2018-06-04T06:18:15.396Z,22.70
2018-06-04T06:21:48.625Z,22.90
2018-06-04T06:25:21.879Z,23.00
2018-06-04T06:32:28.088Z,23.30
2018-06-04T06:36:01.315Z,23.40
2018-06-04T06:39:34.705Z,23.50
2018-06-04T06:43:07.921Z,23.60
2018-06-04T06:46:41.157Z,23.60
2018-06-04T06:50:14.500Z,23.70
2018-06-04T06:53:47.708Z,23.80
2018-06-04T06:57:20.934Z,23.80
2018-06-04T07:00:54.159Z,23.90
2018-06-04T07:04:27.397Z,24.10
2018-06-04T07:08:00.626Z,24.20
2018-06-04T07:11:33.887Z,24.30
2018-06-04T07:15:07.132Z,24.50
2018-06-04T07:18:40.364Z,24.60
2018-06-04T07:25:46.594Z,24.80
2018-06-04T07:29:19.819Z,24.90
2018-06-04T07:32:53.048Z,25.10
2018-06-04T07:36:26.285Z,25.20
2018-06-04T07:39:59.523Z,25.40
2018-06-04T07:43:32.797Z,25.50
2018-06-04T07:47:06.049Z,25.60
2018-06-04T07:50:39.288Z,25.70
2018-06-04T07:54:12.540Z,25.80
2018-06-04T07:57:45.764Z,25.90
2018-06-04T08:01:18.989Z,26.00
2018-06-04T08:04:52.235Z,26.00
2018-06-04T08:08:25.501Z,26.20
2018-06-04T08:11:58.775Z,26.30
2018-06-04T08:15:32.020Z,26.50
2018-06-04T08:19:05.372Z,26.70
2018-06-04T08:22:38.616Z,26.90
2018-06-04T08:26:11.853Z,26.80
2018-06-04T08:29:45.124Z,26.90
2018-06-04T08:33:18.364Z,27.00
2018-06-04T08:40:24.628Z,27.40
2018-06-04T08:43:58.828Z,27.40
2018-06-04T08:47:32.176Z,27.50
2018-06-04T08:51:05.405Z,27.60
2018-06-04T08:54:38.655Z,27.60
2018-06-04T08:58:11.890Z,27.70
2018-06-04T09:01:45.128Z,27.70
2018-06-04T09:05:18.388Z,27.70
2018-06-04T09:08:51.639Z,27.60
2018-06-04T09:12:24.888Z,27.60
2018-06-04T09:15:58.118Z,27.60
2018-06-04T09:19:31.364Z,27.70
2018-06-04T09:23:04.648Z,27.80
2018-06-04T09:26:37.921Z,27.80
2018-06-04T09:30:11.140Z,27.70
2018-06-04T09:33:44.385Z,27.60
2018-06-04T09:37:17.637Z,27.50
2018-06-04T09:40:50.855Z,27.60
2018-06-04T09:44:24.148Z,27.70
2018-06-04T09:47:57.428Z,27.90
2018-06-04T09:51:30.653Z,28.10
2018-06-04T09:55:03.903Z,28.10
2018-06-04T09:58:37.154Z,28.20
2018-06-04T10:02:10.432Z,28.50
2018-06-04T10:05:43.665Z,28.70
2018-06-04T10:09:16.904Z,29.00
2018-06-04T10:12:50.144Z,29.30
2018-06-04T10:19:56.387Z,29.80
2018-06-04T10:23:29.624Z,30.00
2018-06-04T10:27:02.863Z,30.10
2018-06-04T10:34:09.080Z,30.30
2018-06-04T10:37:42.315Z,30.30
2018-06-04T10:41:15.584Z,30.20
2018-06-04T10:44:48.815Z,29.90
2018-06-04T10:48:22.097Z,29.80
2018-06-04T10:51:55.358Z,29.60
2018-06-04T10:55:28.607Z,29.50
2018-06-04T10:59:01.840Z,29.30
2018-06-04T11:02:35.097Z,29.10
2018-06-04T11:06:08.356Z,28.90
2018-06-04T11:09:41.593Z,28.80
2018-06-04T11:13:14.830Z,28.70
2018-06-04T11:16:48.065Z,28.70
2018-06-04T11:20:21.322Z,28.80
2018-06-04T11:23:54.570Z,28.70
2018-06-04T11:27:27.818Z,28.70
2018-06-04T11:31:01.085Z,28.90
2018-06-04T11:34:34.315Z,29.10
2018-06-04T11:38:07.563Z,29.20
2018-06-04T11:41:40.824Z,29.40
2018-06-04T11:45:14.072Z,29.50
2018-06-04T11:48:47.313Z,29.50
2018-06-04T11:52:20.574Z,29.40
2018-06-04T11:55:53.836Z,29.30
2018-06-04T11:59:27.068Z,29.20
2018-06-04T12:03:00.309Z,29.10
2018-06-04T12:06:33.549Z,29.10
2018-06-04T12:17:12.784Z,29.20
2018-06-04T12:20:46.057Z,29.10
2018-06-04T12:24:19.291Z,29.10
2018-06-04T12:27:52.515Z,29.20
2018-06-04T12:31:25.744Z,29.30
2018-06-04T12:42:04.931Z,29.80
2018-06-04T12:45:38.184Z,29.80
2018-06-04T12:49:11.431Z,29.80
2018-06-04T12:52:44.683Z,29.70
2018-06-04T13:00:02.320Z,29.70
2018-06-04T13:03:35.535Z,29.60
2018-06-04T13:07:08.803Z,29.60
2018-06-04T13:10:42.039Z,29.60
2018-06-04T13:14:15.264Z,29.60
2018-06-04T13:17:48.487Z,29.60
2018-06-04T13:21:21.714Z,29.70
2018-06-04T13:24:54.937Z,29.90
2018-06-04T13:28:28.171Z,30.00
2018-06-04T13:32:01.400Z,30.20
2018-06-04T13:35:34.662Z,30.40
2018-06-04T13:39:08.727Z,30.60
2018-06-04T13:42:41.966Z,30.70
2018-06-04T13:46:15.211Z,30.90
2018-06-04T13:49:48.447Z,31.20
2018-06-04T13:53:21.734Z,31.40
2018-06-04T13:56:54.992Z,31.60
2018-06-04T14:04:01.268Z,31.70
2018-06-04T14:07:34.515Z,31.80
2018-06-04T14:11:07.737Z,31.80
2018-06-04T14:14:40.964Z,31.90
2018-06-04T14:18:14.190Z,32.00
2018-06-04T14:21:47.431Z,32.10
2018-06-04T14:25:20.685Z,32.20
2018-06-04T14:28:53.975Z,32.30
2018-06-04T14:32:27.227Z,32.40
2018-06-04T14:36:00.459Z,32.40
2018-06-04T14:39:33.716Z,32.40
2018-06-04T14:43:06.976Z,32.70
2018-06-04T14:46:40.228Z,33.00
2018-06-04T14:50:13.488Z,33.20
2018-06-04T14:53:46.755Z,33.40
2018-06-04T14:57:20.028Z,33.60
2018-06-04T15:00:53.286Z,33.90
2018-06-04T15:04:26.627Z,34.10
2018-06-04T15:07:59.828Z,34.30
2018-06-04T15:11:33.295Z,34.50
2018-06-04T15:18:39.524Z,34.70
2018-06-04T15:22:12.797Z,34.80
2018-06-04T15:25:46.050Z,34.80
2018-06-04T15:29:19.320Z,34.70
2018-06-04T15:32:52.670Z,34.80
2018-06-04T15:36:25.927Z,34.80
2018-06-04T15:39:59.187Z,34.70
2018-06-04T15:47:05.446Z,34.60
2018-06-04T15:50:38.699Z,34.70
2018-06-04T15:54:11.995Z,34.80
2018-06-04T15:57:45.227Z,35.00
2018-06-04T16:01:18.556Z,35.00
2018-06-04T16:04:51.827Z,35.00
2018-06-04T16:08:25.097Z,34.70
2018-06-04T16:11:58.336Z,34.20
2018-06-04T16:15:31.596Z,33.90
2018-06-04T16:19:04.865Z,34.00
2018-06-04T16:22:38.196Z,34.10
2018-06-04T16:26:11.439Z,34.00
2018-06-04T16:29:44.725Z,33.60
2018-06-04T16:33:17.982Z,33.20
2018-06-04T16:36:51.217Z,32.80
2018-06-04T16:40:24.471Z,32.40
2018-06-04T16:43:58.617Z,31.90
2018-06-04T16:47:31.955Z,31.50
2018-06-04T16:51:05.296Z,31.20
2018-06-04T16:54:38.559Z,30.90
2018-06-04T16:58:11.888Z,30.70
2018-06-04T17:01:45.143Z,30.50
2018-06-04T17:05:18.426Z,30.30
2018-06-04T17:08:51.724Z,30.30
2018-06-04T17:12:26.887Z,30.20
2018-06-04T17:16:00.128Z,30.00
2018-06-04T17:19:33.937Z,29.90
2018-06-04T17:23:08.119Z,29.80
2018-06-04T17:26:41.501Z,29.70
2018-06-04T17:30:14.772Z,29.60
2018-06-04T17:33:48.006Z,29.50
2018-06-04T17:37:21.242Z,29.50
2018-06-04T17:40:54.486Z,29.40
2018-06-04T17:44:27.744Z,29.30
2018-06-04T17:48:01.007Z,29.20
2018-06-04T17:51:34.267Z,29.20
2018-06-04T17:55:07.526Z,29.10
2018-06-04T17:58:40.815Z,29.10
2018-06-04T18:02:14.047Z,29.00
2018-06-04T18:05:47.393Z,29.00
2018-06-04T18:12:53.635Z,28.80
2018-06-04T18:16:26.875Z,28.80
2018-06-04T18:20:00.125Z,28.70
2018-06-04T18:23:33.352Z,28.70
2018-06-04T18:27:06.595Z,28.60
2018-06-04T18:30:39.828Z,28.60
2018-06-04T18:34:13.133Z,28.50
2018-06-04T18:37:46.455Z,28.40
2018-06-04T18:41:19.715Z,28.30
2018-06-04T18:44:52.952Z,28.20
2018-06-04T18:48:26.328Z,28.10
2018-06-04T18:51:59.709Z,28.00
2018-06-04T18:55:32.949Z,27.90
2018-06-04T18:59:06.343Z,27.80
2018-06-04T19:02:41.071Z,27.70
2018-06-04T19:06:14.446Z,27.60
2018-06-04T19:09:47.704Z,27.50
2018-06-04T19:13:20.948Z,27.50
2018-06-04T19:16:54.208Z,27.40
2018-06-04T19:20:28.524Z,27.40
2018-06-04T19:24:01.764Z,27.30
2018-06-04T19:27:34.989Z,27.30
2018-06-04T19:31:08.300Z,27.20
2018-06-04T19:34:41.508Z,27.00
2018-06-04T19:38:14.748Z,26.90
2018-06-04T19:41:48.010Z,26.70
2018-06-04T19:45:21.356Z,26.60
2018-06-04T19:52:27.560Z,26.40
2018-06-04T19:56:00.804Z,26.30
2018-06-04T20:03:07.002Z,26.10
2018-06-04T20:06:40.235Z,26.10
2018-06-04T20:10:13.468Z,26.00
2018-06-04T20:13:46.717Z,25.90
2018-06-04T20:17:19.992Z,25.90
2018-06-04T20:20:53.204Z,25.80
2018-06-04T20:24:27.486Z,25.80
2018-06-04T20:28:00.908Z,25.70
2018-06-04T20:31:34.137Z,25.70
2018-06-04T20:35:07.355Z,25.60
2018-06-04T20:38:40.567Z,25.60
2018-06-04T20:45:46.805Z,25.40
2018-06-04T20:49:20.143Z,25.40
2018-06-04T20:52:53.373Z,25.30
2018-06-04T20:59:59.585Z,25.20
2018-06-04T21:03:32.833Z,25.10
2018-06-04T21:07:06.072Z,25.10
2018-06-04T21:10:39.296Z,25.00
2018-06-04T21:14:12.515Z,25.00
2018-06-04T21:17:45.756Z,24.90
2018-06-04T21:21:18.996Z,24.90
2018-06-04T21:24:52.324Z,24.90
2018-06-04T21:28:25.807Z,24.80
2018-06-04T21:31:59.024Z,24.70
2018-06-04T21:35:32.249Z,24.70
2018-06-04T21:42:39.263Z,24.60
2018-06-04T21:49:45.502Z,24.60
2018-06-04T21:53:18.728Z,24.50
2018-06-04T21:56:51.969Z,24.40
2018-06-04T22:00:25.199Z,24.40
2018-06-04T22:03:58.404Z,24.30
2018-06-04T22:07:31.612Z,24.20
2018-06-04T22:11:04.833Z,24.10
2018-06-04T22:14:43.099Z,24.10
2018-06-04T22:18:16.358Z,24.00
2018-06-04T22:21:49.610Z,23.90
2018-06-04T22:25:22.937Z,23.80
2018-06-04T22:28:56.155Z,23.80
2018-06-04T22:32:29.372Z,23.80
2018-06-04T22:39:35.648Z,23.80
2018-06-04T22:43:08.856Z,23.80
2018-06-04T22:46:42.076Z,23.70
2018-06-04T22:50:15.308Z,23.70
2018-06-04T22:53:48.557Z,23.70
2018-06-04T22:57:21.809Z,23.70
2018-06-04T23:00:55.076Z,23.60
2018-06-04T23:04:28.361Z,23.60
2018-06-04T23:08:01.583Z,23.50
2018-06-04T23:11:34.816Z,23.50
2018-06-04T23:15:08.065Z,23.50
2018-06-04T23:18:41.308Z,23.50
2018-06-04T23:22:14.551Z,23.50
2018-06-04T23:25:47.781Z,23.50
2018-06-04T23:29:21.025Z,23.40
2018-06-04T23:32:54.248Z,23.40
2018-06-04T23:40:00.528Z,23.30
2018-06-04T23:43:33.763Z,23.20
2018-06-04T23:50:40.250Z,23.20
2018-06-04T23:57:46.460Z,23.10
